Time;durP1;ratioP1;P1;durP2;ratioP2;P2;SDS_P1;SDS_P2;PMS_P1;PMS_P2;Temp;Humidity;BMP_temperature;BMP_pressure;BME280_temperature;BME280_humidity;BME280_pressure;Samples;Min_cycle;Max_cycle;Signal;HPM_P1;HPM_P2
2023/08/16 00:00:18;;;;;;;33.63;10.52;;;;;;;;;;4935307;29;20055;-79
2023/08/16 00:02:51;;;;;;;34.35;11.02;;;;;;;;;;4934833;29;20482;-78
2023/08/16 00:05:25;;;;;;;30.40;9.85;;;;;;;;;;4935443;29;20050;-80
2023/08/16 00:07:55;;;;;;;27.60;9.25;;;;;;;;;;4934912;29;20058;-80
2023/08/16 00:10:29;;;;;;;23.02;8.85;;;;;;;;;;4917894;29;20418;-78
2023/08/16 00:13:06;;;;;;;18.08;6.20;;;;;;;;;;4934848;29;20550;-78
2023/08/16 00:15:37;;;;;;;13.93;5.32;;;;;;;;;;4917664;29;20055;-79
2023/08/16 00:18:08;;;;;;;19.58;7.43;;;;;;;;;;4917288;29;20058;-79
2023/08/16 00:20:41;;;;;;;27.38;8.43;;;;;;;;;;4935150;29;20052;-78
2023/08/16 00:23:16;;;;;;;29.33;7.72;;;;;;;;;;4935110;29;20079;-78
2023/08/16 00:25:48;;;;;;;16.23;6.07;;;;;;;;;;4934276;29;20044;-78
2023/08/16 00:28:21;;;;;;;13.63;4.93;;;;;;;;;;4935075;29;20518;-79
2023/08/16 00:30:55;;;;;;;13.35;5.45;;;;;;;;;;4934648;29;20055;-79
2023/08/16 00:33:25;;;;;;;15.68;5.13;;;;;;;;;;4935224;29;20050;-80
2023/08/16 00:35:57;;;;;;;;;;;;;;;;;;4917970;29;20078;-78
2023/08/16 00:38:27;;;;;;;16.10;5.03;;;;;;;;;;4917911;29;19923;-79
2023/08/16 00:40:59;;;;;;;20.33;5.22;;;;;;;;;;4934977;29;20051;-80
2023/08/16 00:43:34;;;;;;;19.13;5.55;;;;;;;;;;4902341;29;20508;-79
2023/08/16 00:46:10;;;;;;;10.57;4.13;;;;;;;;;;4934357;29;20044;-79
2023/08/16 00:48:44;;;;;;;9.63;4.43;;;;;;;;;;4934450;29;20387;-79
2023/08/16 00:51:15;;;;;;;13.65;4.50;;;;;;;;;;4935110;29;20071;-79
2023/08/16 00:53:47;;;;;;;13.50;4.50;;;;;;;;;;4934481;29;20059;-79
2023/08/16 00:56:22;;;;;;;9.82;4.60;;;;;;;;;;4916867;29;20073;-79
2023/08/16 00:58:53;;;;;;;14.45;4.40;;;;;;;;;;4901936;29;20058;-79
2023/08/16 01:01:30;;;;;;;12.73;4.43;;;;;;;;;;4935148;29;20043;-78
2023/08/16 01:04:02;;;;;;;9.95;3.92;;;;;;;;;;4934532;29;20044;-79
2023/08/16 01:06:34;;;;;;;7.50;3.80;;;;;;;;;;4918011;29;20055;-77
2023/08/16 01:09:07;;;;;;;13.18;4.25;;;;;;;;;;4920311;29;20059;-78
2023/08/16 01:12:00;;;;;;;11.02;4.55;;;;;;;;;;4920258;29;20067;-80
2023/08/16 01:14:44;;;;;;;10.52;4.28;;;;;;;;;;4920795;29;20051;-79
2023/08/16 01:17:21;;;;;;;11.75;4.57;;;;;;;;;;4920671;29;20056;-78
2023/08/16 01:19:57;;;;;;;13.55;5.43;;;;;;;;;;4919615;29;20055;-78
2023/08/16 01:22:57;;;;;;;15.88;5.00;;;;;;;;;;4937957;29;20051;-79
2023/08/16 01:25:45;;;;;;;14.48;5.25;;;;;;;;;;4937801;29;20036;-80
2023/08/16 01:28:21;;;;;;;19.25;5.53;;;;;;;;;;4937158;29;20521;-79
2023/08/16 01:30:54;;;;;;;15.02;5.95;;;;;;;;;;4919742;29;20063;-78
2023/08/16 01:33:27;;;;;;;20.27;5.45;;;;;;;;;;4921955;29;20051;-78
2023/08/16 01:35:58;;;;;;;12.48;5.00;;;;;;;;;;4919481;29;20044;-78
2023/08/16 01:38:31;;;;;;;13.75;5.18;;;;;;;;;;4920935;29;20059;-78
2023/08/16 01:41:19;;;;;;;13.65;6.43;;;;;;;;;;4904405;29;20056;-78
2023/08/16 01:43:52;;;;;;;14.93;5.88;;;;;;;;;;4919763;29;20055;-78
2023/08/16 01:46:26;;;;;;;15.85;6.20;;;;;;;;;;4919852;29;20051;-77
2023/08/16 01:48:59;;;;;;;15.65;5.47;;;;;;;;;;4918930;29;20047;-80
2023/08/16 01:51:30;;;;;;;15.30;5.97;;;;;;;;;;4936889;29;20518;-80
2023/08/16 01:54:02;;;;;;;16.25;6.05;;;;;;;;;;4936685;29;20043;-76
2023/08/16 01:56:33;;;;;;;22.02;5.93;;;;;;;;;;4920153;29;20051;-80
2023/08/16 01:59:05;;;;;;;12.20;4.85;;;;;;;;;;4919026;29;20063;-78
2023/08/16 02:01:35;;;;;;;13.40;4.95;;;;;;;;;;4919031;29;20060;-78
2023/08/16 02:04:08;;;;;;;15.57;5.60;;;;;;;;;;4936876;29;20055;-78
2023/08/16 02:06:39;;;;;;;15.43;5.20;;;;;;;;;;4921260;29;20063;-78
2023/08/16 02:09:11;;;;;;;12.68;5.60;;;;;;;;;;4920281;29;20340;-80
2023/08/16 02:11:43;;;;;;;11.93;5.65;;;;;;;;;;4903407;29;20426;-78
2023/08/16 02:14:17;;;;;;;14.38;4.97;;;;;;;;;;4936654;29;20046;-78
2023/08/16 02:16:48;;;;;;;10.18;4.63;;;;;;;;;;4919186;29;20196;-79
2023/08/16 02:19:19;;;;;;;10.27;4.35;;;;;;;;;;4919366;29;20063;-79
2023/08/16 02:21:49;;;;;;;10.43;4.47;;;;;;;;;;4935961;29;20058;-80
2023/08/16 02:24:23;;;;;;;10.60;4.80;;;;;;;;;;4918780;29;20055;-79
2023/08/16 02:26:54;;;;;;;12.30;4.57;;;;;;;;;;4936189;29;20051;-79
2023/08/16 02:29:26;;;;;;;12.10;4.65;;;;;;;;;;4936398;29;20044;-82
2023/08/16 02:31:57;;;;;;;14.25;4.82;;;;;;;;;;4935753;29;20040;-79
2023/08/16 02:34:31;;;;;;;11.20;4.55;;;;;;;;;;4949109;29;20047;-79
2023/08/16 02:37:04;;;;;;;9.88;4.45;;;;;;;;;;4937063;29;20058;-80
2023/08/16 02:39:38;;;;;;;16.45;5.20;;;;;;;;;;4955542;29;20509;-78
2023/08/16 02:42:08;;;;;;;11.50;4.82;;;;;;;;;;4937377;29;20066;-77
2023/08/16 02:44:38;;;;;;;12.27;5.00;;;;;;;;;;4955457;29;20043;-78
2023/08/16 02:47:10;;;;;;;14.73;4.95;;;;;;;;;;4954475;29;20063;-77
2023/08/16 02:49:42;;;;;;;15.35;5.88;;;;;;;;;;4937629;29;20510;-77
2023/08/16 02:52:12;;;;;;;14.43;6.20;;;;;;;;;;4960236;29;20047;-77
2023/08/16 02:54:43;;;;;;;12.30;5.70;;;;;;;;;;4964342;29;20108;-77
2023/08/16 02:57:18;;;;;;;10.68;4.47;;;;;;;;;;4947394;29;20051;-77
2023/08/16 02:59:49;;;;;;;11.88;4.80;;;;;;;;;;4963438;29;20076;-78
2023/08/16 03:02:19;;;;;;;10.65;4.10;;;;;;;;;;4937822;29;20066;-78
2023/08/16 03:04:52;;;;;;;12.82;4.32;;;;;;;;;;4955969;29;20383;-78
2023/08/16 03:07:23;;;;;;;14.73;4.18;;;;;;;;;;4955736;29;20051;-77
2023/08/16 03:09:55;;;;;;;8.77;4.28;;;;;;;;;;4955965;29;20047;-79
2023/08/16 03:12:25;;;;;;;10.75;4.70;;;;;;;;;;4955891;29;20054;-78
2023/08/16 03:14:58;;;;;;;14.43;5.00;;;;;;;;;;4955218;29;20054;-78
2023/08/16 03:17:30;;;;;;;11.77;4.90;;;;;;;;;;4955868;29;20047;-77
2023/08/16 03:20:02;;;;;;;9.50;4.50;;;;;;;;;;4937454;29;20066;-77
2023/08/16 03:22:32;;;;;;;10.50;4.70;;;;;;;;;;4938335;29;20047;-78
2023/08/16 03:25:10;;;;;;;13.13;5.07;;;;;;;;;;4955567;29;20497;-77
2023/08/16 03:27:42;;;;;;;12.18;4.72;;;;;;;;;;4937423;29;20047;-78
2023/08/16 03:30:15;;;;;;;11.63;4.82;;;;;;;;;;4937139;29;20051;-77
2023/08/16 03:32:46;;;;;;;9.60;4.65;;;;;;;;;;4954580;29;20055;-77
2023/08/16 03:35:20;;;;;;;11.57;4.72;;;;;;;;;;4937899;29;20109;-77
2023/08/16 03:37:52;;;;;;;11.60;3.88;;;;;;;;;;4937400;29;20059;-77
2023/08/16 03:40:25;;;;;;;15.68;4.35;;;;;;;;;;4937536;29;20384;-77
2023/08/16 03:42:55;;;;;;;11.88;4.40;;;;;;;;;;4954916;28;20054;-77
2023/08/16 03:45:28;;;;;;;11.35;4.53;;;;;;;;;;4937586;29;20055;-77
2023/08/16 03:48:02;;;;;;;12.10;4.05;;;;;;;;;;4937776;29;20054;-78
2023/08/16 03:50:33;;;;;;;9.43;4.32;;;;;;;;;;4936784;29;20074;-78
2023/08/16 03:53:06;;;;;;;9.45;4.07;;;;;;;;;;4937827;29;20059;-77
2023/08/16 03:55:39;;;;;;;10.57;4.13;;;;;;;;;;4936816;29;20051;-77
2023/08/16 03:58:12;;;;;;;10.55;4.13;;;;;;;;;;4936923;29;20055;-77
2023/08/16 04:00:48;;;;;;;8.70;3.85;;;;;;;;;;4955368;29;20039;-78
2023/08/16 04:03:21;;;;;;;10.43;4.28;;;;;;;;;;4953827;29;20058;-77
2023/08/16 04:05:52;;;;;;;10.00;4.40;;;;;;;;;;4955030;29;20056;-77
2023/08/16 04:08:24;;;;;;;9.02;3.97;;;;;;;;;;4954997;29;20058;-77
2023/08/16 04:10:56;;;;;;;9.50;4.35;;;;;;;;;;4937889;29;20051;-78
2023/08/16 04:13:27;;;;;;;6.85;3.70;;;;;;;;;;4954315;29;20052;-77
2023/08/16 04:16:03;;;;;;;9.85;4.20;;;;;;;;;;4937093;29;20055;-78
2023/08/16 04:18:36;;;;;;;9.98;4.40;;;;;;;;;;4936519;29;20059;-78
2023/08/16 04:21:07;;;;;;;8.82;4.00;;;;;;;;;;4938017;29;20043;-78
2023/08/16 04:23:38;;;;;;;13.05;3.80;;;;;;;;;;4937267;29;20059;-77
2023/08/16 04:26:09;;;;;;;9.73;3.92;;;;;;;;;;4955036;29;20359;-77
2023/08/16 04:28:41;;;;;;;10.02;3.63;;;;;;;;;;4936686;29;20055;-77
2023/08/16 04:31:12;;;;;;;9.35;3.75;;;;;;;;;;4953685;29;20059;-78
2023/08/16 04:33:44;;;;;;;8.25;3.33;;;;;;;;;;4937028;29;20410;-78
2023/08/16 04:36:16;;;;;;;11.57;3.80;;;;;;;;;;4936985;29;20367;-78
2023/08/16 04:38:49;;;;;;;10.15;3.42;;;;;;;;;;4937067;29;20058;-78
2023/08/16 04:41:20;;;;;;;12.15;3.53;;;;;;;;;;4936950;29;20051;-77
2023/08/16 04:43:52;;;;;;;;;;;;;;;;;;4958104;29;20047;-78
2023/08/16 04:46:22;;;;;;;10.93;3.17;;;;;;;;;;4939934;29;19922;-78
2023/08/16 04:48:56;;;;;;;7.25;3.63;;;;;;;;;;4958127;29;20054;-77
2023/08/16 04:51:28;;;;;;;8.40;2.90;;;;;;;;;;4940459;29;20047;-77
2023/08/16 04:53:58;;;;;;;12.77;3.55;;;;;;;;;;4958065;28;20066;-77
2023/08/16 04:56:30;;;;;;;8.23;3.53;;;;;;;;;;4940422;29;20047;-77
2023/08/16 04:59:01;;;;;;;8.70;3.20;;;;;;;;;;4940374;29;20402;-77
2023/08/16 05:01:33;;;;;;;8.35;3.15;;;;;;;;;;4940184;29;20055;-77
2023/08/16 05:04:06;;;;;;;7.25;3.10;;;;;;;;;;4940256;29;20058;-78
2023/08/16 05:06:41;;;;;;;6.53;3.05;;;;;;;;;;4940402;29;20066;-77
2023/08/16 05:09:13;;;;;;;9.55;3.38;;;;;;;;;;4924976;29;20051;-77
2023/08/16 05:11:47;;;;;;;7.43;3.25;;;;;;;;;;4940379;29;20458;-78
2023/08/16 05:14:17;;;;;;;7.57;3.30;;;;;;;;;;4939920;29;20051;-77
2023/08/16 05:16:51;;;;;;;6.13;2.95;;;;;;;;;;4940008;29;20059;-77
2023/08/16 05:19:24;;;;;;;9.55;3.47;;;;;;;;;;4939469;29;20047;-77
2023/08/16 05:21:54;;;;;;;10.52;3.03;;;;;;;;;;4940690;29;20055;-77
2023/08/16 05:24:24;;;;;;;7.75;3.25;;;;;;;;;;4956260;29;20062;-77
2023/08/16 05:26:55;;;;;;;6.53;3.03;;;;;;;;;;4957368;29;20058;-77
2023/08/16 05:29:28;;;;;;;10.88;3.70;;;;;;;;;;4956357;29;20062;-78
2023/08/16 05:32:02;;;;;;;10.13;3.42;;;;;;;;;;4956871;29;20469;-77
2023/08/16 05:34:32;;;;;;;7.82;3.05;;;;;;;;;;4957947;29;20046;-77
2023/08/16 05:37:05;;;;;;;9.45;3.30;;;;;;;;;;4957160;29;20047;-78
2023/08/16 05:39:39;;;;;;;9.15;3.15;;;;;;;;;;4957515;29;20058;-78
2023/08/16 05:42:13;;;;;;;7.43;3.20;;;;;;;;;;4956306;29;20066;-78
2023/08/16 05:44:44;;;;;;;8.00;3.05;;;;;;;;;;4956216;29;20058;-78
2023/08/16 05:47:14;;;;;;;8.90;3.03;;;;;;;;;;4956993;28;20047;-78
2023/08/16 05:49:47;;;;;;;5.95;2.97;;;;;;;;;;4939383;29;20059;-78
2023/08/16 05:52:21;;;;;;;7.68;2.58;;;;;;;;;;4955725;28;20047;-78
2023/08/16 05:54:53;;;;;;;7.93;2.88;;;;;;;;;;4956440;29;20054;-78
2023/08/16 05:57:23;;;;;;;7.20;2.50;;;;;;;;;;4955654;29;20051;-77
2023/08/16 05:59:57;;;;;;;6.45;3.08;;;;;;;;;;4939880;29;20055;-78
2023/08/16 06:02:32;;;;;;;6.88;2.50;;;;;;;;;;4955926;29;20059;-77
2023/08/16 06:05:04;;;;;;;6.63;3.00;;;;;;;;;;4939067;29;20055;-78
2023/08/16 06:07:35;;;;;;;8.02;3.55;;;;;;;;;;4956120;29;20051;-78
2023/08/16 06:10:09;;;;;;;8.70;3.60;;;;;;;;;;4955963;29;20055;-78
2023/08/16 06:12:40;;;;;;;8.23;2.67;;;;;;;;;;4940024;29;20375;-78
2023/08/16 06:15:14;;;;;;;7.57;2.85;;;;;;;;;;4955528;29;20051;-78
2023/08/16 06:17:47;;;;;;;5.78;2.70;;;;;;;;;;4939906;29;20402;-77
2023/08/16 06:20:22;;;;;;;8.63;2.90;;;;;;;;;;4956694;29;20047;-78
2023/08/16 06:22:54;;;;;;;6.40;3.05;;;;;;;;;;4955800;29;20509;-78
2023/08/16 06:25:26;;;;;;;6.22;2.92;;;;;;;;;;4955394;29;20070;-78
2023/08/16 06:27:55;;;;;;;6.00;2.40;;;;;;;;;;4956581;29;20054;-78
2023/08/16 06:30:27;;;;;;;6.07;2.58;;;;;;;;;;4956710;29;20047;-78
2023/08/16 06:32:59;;;;;;;10.70;2.47;;;;;;;;;;4939066;29;20410;-78
2023/08/16 06:35:32;;;;;;;5.80;2.35;;;;;;;;;;4956257;29;20039;-78
2023/08/16 06:38:03;;;;;;;8.05;2.67;;;;;;;;;;4956371;29;20489;-78
2023/08/16 06:40:35;;;;;;;5.28;2.42;;;;;;;;;;4938188;29;20059;-78
2023/08/16 06:43:11;;;;;;;6.15;2.50;;;;;;;;;;4955340;29;20150;-78
2023/08/16 06:45:43;;;;;;;6.65;2.85;;;;;;;;;;4954958;29;20062;-79
2023/08/16 06:48:12;;;;;;;7.72;2.25;;;;;;;;;;4955318;29;20059;-78
2023/08/16 06:50:45;;;;;;;6.68;2.60;;;;;;;;;;4954680;29;20059;-77
2023/08/16 06:53:23;;;;;;;7.40;2.47;;;;;;;;;;4956125;29;20055;-77
2023/08/16 06:55:56;;;;;;;4.63;2.25;;;;;;;;;;4956382;29;20485;-77
2023/08/16 06:58:26;;;;;;;5.97;2.08;;;;;;;;;;4954763;29;20051;-77
2023/08/16 07:00:58;;;;;;;10.18;2.58;;;;;;;;;;4938380;29;20088;-78
2023/08/16 07:03:28;;;;;;;6.72;2.85;;;;;;;;;;4938752;29;20054;-78
2023/08/16 07:05:59;;;;;;;5.75;2.20;;;;;;;;;;4935339;29;20078;-78
2023/08/16 07:08:29;;;;;;;5.63;2.22;;;;;;;;;;4935163;29;20510;-77
2023/08/16 07:11:00;;;;;;;6.45;2.25;;;;;;;;;;4936800;29;20044;-77
2023/08/16 07:13:33;;;;;;;3.92;1.88;;;;;;;;;;4935942;29;20056;-79
2023/08/16 07:16:05;;;;;;;5.38;2.15;;;;;;;;;;4936162;29;20348;-77
2023/08/16 07:18:37;;;;;;;5.80;2.53;;;;;;;;;;4935317;29;20058;-77
2023/08/16 07:21:07;;;;;;;6.60;2.05;;;;;;;;;;4919167;29;20395;-77
2023/08/16 07:23:44;;;;;;;5.57;2.25;;;;;;;;;;4935717;29;20060;-78
2023/08/16 07:26:16;;;;;;;4.32;2.00;;;;;;;;;;4936261;29;20125;-78
2023/08/16 07:28:46;;;;;;;4.70;1.90;;;;;;;;;;4935397;29;20060;-78
2023/08/16 07:31:16;;;;;;;4.18;2.17;;;;;;;;;;4918232;29;20059;-78
2023/08/16 07:33:47;;;;;;;3.58;2.10;;;;;;;;;;4935167;29;20051;-79
2023/08/16 07:36:18;;;;;;;5.25;1.70;;;;;;;;;;4934915;29;20047;-78
2023/08/16 07:38:49;;;;;;;4.75;2.33;;;;;;;;;;4935401;29;20052;-79
2023/08/16 07:41:22;;;;;;;4.63;2.08;;;;;;;;;;4934577;29;20120;-78
2023/08/16 07:43:52;;;;;;;4.43;2.22;;;;;;;;;;4935646;29;20398;-78
2023/08/16 07:46:25;;;;;;;5.35;1.85;;;;;;;;;;4935047;29;20060;-78
2023/08/16 07:48:55;;;;;;;6.68;2.40;;;;;;;;;;4934942;29;20060;-78
2023/08/16 07:51:28;;;;;;;7.78;1.75;;;;;;;;;;4936152;29;20070;-78
2023/08/16 07:53:58;;;;;;;4.00;2.10;;;;;;;;;;4939458;29;20054;-76
2023/08/16 07:56:37;;;;;;;5.43;2.28;;;;;;;;;;4948142;29;20047;-77
2023/08/16 07:59:08;;;;;;;3.53;1.77;;;;;;;;;;4947318;29;20368;-76
2023/08/16 08:01:43;;;;;;;5.63;1.63;;;;;;;;;;4940115;29;20051;-78
2023/08/16 08:04:13;;;;;;;7.15;2.45;;;;;;;;;;4934274;29;20534;-79
2023/08/16 08:06:47;;;;;;;6.25;1.88;;;;;;;;;;4935119;29;20056;-78
2023/08/16 08:09:19;;;;;;;6.30;1.75;;;;;;;;;;4935299;29;20108;-78
2023/08/16 08:11:54;;;;;;;5.35;2.30;;;;;;;;;;4935867;29;20059;-79
2023/08/16 08:14:24;;;;;;;5.57;2.15;;;;;;;;;;4903036;29;20072;-78
2023/08/16 08:16:56;;;;;;;4.88;2.17;;;;;;;;;;4937212;29;20063;-79
2023/08/16 08:19:28;;;;;;;7.13;2.50;;;;;;;;;;4939837;29;20043;-79
2023/08/16 08:22:01;;;;;;;7.22;1.83;;;;;;;;;;4938481;29;20078;-76
2023/08/16 08:24:31;;;;;;;4.45;1.92;;;;;;;;;;4939365;29;20051;-77
2023/08/16 08:27:06;;;;;;;5.35;2.00;;;;;;;;;;4939044;29;20060;-77
2023/08/16 08:29:41;;;;;;;5.20;1.77;;;;;;;;;;4938672;29;20056;-77
2023/08/16 08:32:14;;;;;;;5.68;2.40;;;;;;;;;;4938635;29;20070;-77
2023/08/16 08:34:44;;;;;;;9.20;2.45;;;;;;;;;;4939745;29;20048;-77
2023/08/16 08:37:15;;;;;;;9.57;2.30;;;;;;;;;;4939044;29;20044;-77
2023/08/16 08:39:48;;;;;;;5.55;1.98;;;;;;;;;;4938521;29;20058;-77
2023/08/16 08:42:21;;;;;;;6.95;2.30;;;;;;;;;;4939173;29;20051;-77
2023/08/16 08:44:52;;;;;;;6.20;2.15;;;;;;;;;;4937924;29;20482;-76
2023/08/16 08:47:27;;;;;;;5.38;2.10;;;;;;;;;;4938391;29;20520;-78
2023/08/16 08:50:03;;;;;;;5.38;2.08;;;;;;;;;;4939088;29;20055;-77
2023/08/16 08:52:34;;;;;;;7.30;2.40;;;;;;;;;;4921569;29;20060;-78
2023/08/16 08:55:05;;;;;;;7.25;2.42;;;;;;;;;;4939121;29;20055;-78
2023/08/16 08:57:44;;;;;;;4.38;2.38;;;;;;;;;;4938863;29;20070;-77
2023/08/16 09:00:20;;;;;;;5.93;2.42;;;;;;;;;;4938753;29;20047;-77
2023/08/16 09:02:52;;;;;;;7.25;2.00;;;;;;;;;;4939000;29;20044;-77
2023/08/16 09:05:25;;;;;;;7.22;2.25;;;;;;;;;;4937511;29;20058;-79
2023/08/16 09:07:57;;;;;;;3.83;1.83;;;;;;;;;;4938168;29;20063;-78
2023/08/16 09:10:37;;;;;;;5.25;1.73;;;;;;;;;;4945509;29;20050;-78
2023/08/16 09:13:11;;;;;;;6.95;2.10;;;;;;;;;;4940172;29;20055;-77
2023/08/16 09:15:44;;;;;;;4.18;1.98;;;;;;;;;;4957621;29;20051;-77
2023/08/16 09:18:19;;;;;;;5.22;1.83;;;;;;;;;;4958192;29;20051;-78
2023/08/16 09:20:59;;;;;;;;;;;;;;;;;;4957910;29;20051;-77
2023/08/16 09:23:33;;;;;;;5.93;2.17;;;;;;;;;;4939706;29;19929;-77
2023/08/16 09:26:17;;;;;;;6.28;2.05;;;;;;;;;;4924598;29;20133;-78
2023/08/16 09:28:48;;;;;;;5.20;1.75;;;;;;;;;;4939447;29;20059;-77
2023/08/16 09:31:20;;;;;;;5.35;2.20;;;;;;;;;;4957451;29;20058;-78
2023/08/16 09:34:01;;;;;;;5.75;2.00;;;;;;;;;;4957347;29;20051;-77
2023/08/16 09:36:33;;;;;;;4.13;1.75;;;;;;;;;;4957500;29;20055;-77
2023/08/16 09:39:11;;;;;;;6.15;2.28;;;;;;;;;;4957052;29;20050;-78
2023/08/16 09:41:51;;;;;;;5.50;2.08;;;;;;;;;;4957523;29;20048;-78
2023/08/16 09:44:31;;;;;;;6.30;2.03;;;;;;;;;;4957331;29;20047;-78
2023/08/16 09:47:13;;;;;;;7.10;2.72;;;;;;;;;;4932929;29;20039;-77
2023/08/16 09:49:50;;;;;;;4.50;2.03;;;;;;;;;;4951387;29;20482;-78
2023/08/16 09:52:21;;;;;;;5.05;2.47;;;;;;;;;;4929516;29;20051;-78
2023/08/16 09:54:53;;;;;;;5.93;2.40;;;;;;;;;;4949978;29;20047;-77
2023/08/16 09:57:25;;;;;;;9.95;2.63;;;;;;;;;;4931209;29;20047;-77
2023/08/16 10:00:01;;;;;;;5.38;2.03;;;;;;;;;;4941057;29;20040;-77
2023/08/16 10:02:42;;;;;;;6.75;2.70;;;;;;;;;;4938484;29;20071;-78
2023/08/16 10:05:16;;;;;;;4.93;2.28;;;;;;;;;;4931322;29;20391;-77
2023/08/16 10:07:53;;;;;;;8.50;2.42;;;;;;;;;;4957001;29;20474;-78
2023/08/16 10:10:25;;;;;;;8.02;2.63;;;;;;;;;;4957090;29;20522;-78
2023/08/16 10:13:01;;;;;;;6.45;2.47;;;;;;;;;;4956624;29;20047;-77
2023/08/16 10:15:34;;;;;;;11.52;4.13;;;;;;;;;;4940464;29;20051;-78
2023/08/16 10:18:09;;;;;;;12.30;4.88;;;;;;;;;;4956620;29;20410;-78
2023/08/16 10:20:48;;;;;;;9.63;3.42;;;;;;;;;;4940298;29;20062;-79
2023/08/16 10:23:19;;;;;;;7.93;2.50;;;;;;;;;;4940070;29;20398;-77
2023/08/16 10:25:53;;;;;;;7.60;3.25;;;;;;;;;;4940173;29;20048;-79
2023/08/16 10:28:26;;;;;;;10.18;3.47;;;;;;;;;;4956895;29;20513;-79
2023/08/16 10:31:02;;;;;;;10.68;3.10;;;;;;;;;;4956137;29;20379;-78
2023/08/16 10:33:44;;;;;;;5.75;2.53;;;;;;;;;;4956116;29;20058;-79
2023/08/16 10:36:17;;;;;;;8.82;2.90;;;;;;;;;;4956458;29;20061;-79
2023/08/16 10:38:55;;;;;;;10.07;3.63;;;;;;;;;;4950246;28;20036;-78
2023/08/16 10:41:40;;;;;;;8.80;4.03;;;;;;;;;;4917587;29;20445;-79
2023/08/16 10:44:22;;;;;;;8.68;3.67;;;;;;;;;;4918957;29;20541;-77
2023/08/16 10:46:55;;;;;;;11.30;3.50;;;;;;;;;;4935592;29;20086;-78
2023/08/16 10:49:36;;;;;;;9.13;3.40;;;;;;;;;;4935579;29;20058;-79
2023/08/16 10:52:07;;;;;;;7.55;3.38;;;;;;;;;;4950239;29;20058;-78
2023/08/16 10:54:40;;;;;;;12.27;3.88;;;;;;;;;;4954891;29;20112;-78
2023/08/16 10:57:13;;;;;;;11.43;3.63;;;;;;;;;;4954779;29;20043;-79
2023/08/16 10:59:46;;;;;;;13.95;4.50;;;;;;;;;;4936979;29;20059;-78
2023/08/16 11:02:20;;;;;;;10.40;3.92;;;;;;;;;;4955225;29;20054;-82
2023/08/16 11:04:51;;;;;;;8.93;3.33;;;;;;;;;;4954942;29;20050;-79
2023/08/16 11:07:23;;;;;;;8.85;3.90;;;;;;;;;;4954651;29;20043;-80
2023/08/16 11:10:01;;;;;;;10.65;3.72;;;;;;;;;;4954678;29;20498;-81
2023/08/16 11:12:39;;;;;;;11.45;3.78;;;;;;;;;;4922142;29;20422;-85
2023/08/16 11:15:10;;;;;;;17.35;4.75;;;;;;;;;;4955100;29;20066;-83
2023/08/16 11:17:45;;;;;;;12.15;4.28;;;;;;;;;;4921863;29;20051;-82
2023/08/16 11:20:35;;;;;;;9.27;4.28;;;;;;;;;;4940887;29;20058;-85
2023/08/16 11:23:16;;;;;;;10.98;4.05;;;;;;;;;;4937362;29;20074;-84
2023/08/16 11:25:48;;;;;;;9.98;4.72;;;;;;;;;;4954567;29;20054;-82
2023/08/16 11:28:20;;;;;;;9.00;4.47;;;;;;;;;;4938374;29;20051;-84
2023/08/16 11:30:58;;;;;;;8.27;4.35;;;;;;;;;;4917684;29;20482;-85
2023/08/16 11:33:39;;;;;;;8.52;3.92;;;;;;;;;;4936345;29;20438;-82
2023/08/16 11:36:15;;;;;;;8.07;4.10;;;;;;;;;;4938335;29;20387;-82
2023/08/16 11:38:49;;;;;;;7.32;3.78;;;;;;;;;;4936040;29;21774;-82
2023/08/16 11:41:21;;;;;;;;;;;;;;;;;;4944357;29;20063;-86
2023/08/16 11:43:59;;;;;;;7.75;3.88;;;;;;;;;;4943202;29;19931;-83
2023/08/16 11:46:45;;;;;;;11.07;4.00;;;;;;;;;;4943170;29;20040;-85
2023/08/16 11:49:22;;;;;;;11.45;4.57;;;;;;;;;;4943993;29;20075;-83
2023/08/16 11:51:52;;;;;;;10.20;4.57;;;;;;;;;;4927833;29;20521;-82
2023/08/16 11:54:23;;;;;;;14.07;5.88;;;;;;;;;;4945485;29;20050;-83
2023/08/16 11:56:55;;;;;;;12.35;6.05;;;;;;;;;;4912270;29;20054;-87
2023/08/16 11:59:34;;;;;;;11.77;5.43;;;;;;;;;;4945571;29;20043;-83
2023/08/16 12:02:08;;;;;;;12.00;5.95;;;;;;;;;;4943204;29;20418;-85
2023/08/16 12:04:43;;;;;;;20.15;7.93;;;;;;;;;;4927151;29;20047;-85
2023/08/16 12:07:17;;;;;;;25.05;12.27;;;;;;;;;;4927255;29;20039;-83
2023/08/16 12:09:49;;;;;;;13.25;7.47;;;;;;;;;;4944477;29;20512;-81
2023/08/16 12:12:22;;;;;;;13.05;6.10;;;;;;;;;;4944721;29;20359;-81
2023/08/16 12:14:57;;;;;;;18.25;10.43;;;;;;;;;;4939852;29;20501;-81
2023/08/16 12:17:30;;;;;;;18.48;11.65;;;;;;;;;;4935451;29;20130;-82
2023/08/16 12:20:01;;;;;;;23.38;12.23;;;;;;;;;;4934218;29;20048;-82
2023/08/16 12:22:34;;;;;;;14.57;8.88;;;;;;;;;;4938003;29;20410;-82
2023/08/16 12:25:05;;;;;;;10.73;5.82;;;;;;;;;;4936417;29;20509;-82
2023/08/16 12:27:39;;;;;;;12.27;6.30;;;;;;;;;;4928496;29;20063;-79
2023/08/16 12:30:12;;;;;;;12.65;6.65;;;;;;;;;;4941027;29;20048;-80
2023/08/16 12:32:45;;;;;;;99.18;36.10;;;;;;;;;;4947373;29;20023;-78
2023/08/16 12:35:18;;;;;;;17.83;7.38;;;;;;;;;;4956532;29;20345;-76
2023/08/16 12:37:52;;;;;;;69.15;29.05;;;;;;;;;;4958302;29;20054;-78
2023/08/16 12:40:25;;;;;;;13.45;5.35;;;;;;;;;;4952564;29;20047;-81
2023/08/16 12:43:00;;;;;;;10.45;4.10;;;;;;;;;;4937860;29;20047;-81
2023/08/16 12:45:32;;;;;;;23.63;7.20;;;;;;;;;;4939508;29;20052;-79
2023/08/16 12:48:08;;;;;;;25.45;8.35;;;;;;;;;;4921128;29;20047;-80
2023/08/16 12:50:39;;;;;;;92.90;36.80;;;;;;;;;;4935642;29;20067;-80
2023/08/16 12:53:09;;;;;;;22.20;10.25;;;;;;;;;;4927125;29;20052;-79
2023/08/16 12:55:43;;;;;;;9.18;3.97;;;;;;;;;;4904001;29;20052;-82
2023/08/16 12:58:17;;;;;;;24.05;9.55;;;;;;;;;;4922873;29;20043;-82
2023/08/16 13:00:52;;;;;;;12.13;3.17;;;;;;;;;;4933605;29;20078;-81
2023/08/16 13:03:34;;;;;;;6.88;2.40;;;;;;;;;;4906319;29;20066;-81
2023/08/16 13:06:11;;;;;;;5.80;2.85;;;;;;;;;;4938029;29;20062;-83
2023/08/16 13:08:44;;;;;;;6.15;2.53;;;;;;;;;;4938216;29;20164;-82
2023/08/16 13:11:18;;;;;;;22.63;10.52;;;;;;;;;;4937770;29;20063;-84
2023/08/16 13:13:50;;;;;;;8.07;2.58;;;;;;;;;;4937284;29;20048;-80
2023/08/16 13:16:30;;;;;;;7.05;3.70;;;;;;;;;;4937956;29;20055;-83
2023/08/16 13:19:14;;;;;;;4.70;2.20;;;;;;;;;;4924063;29;20052;-81
2023/08/16 13:21:48;;;;;;;4.78;1.95;;;;;;;;;;4922223;29;20056;-81
2023/08/16 13:24:25;;;;;;;5.10;2.25;;;;;;;;;;4905176;29;20055;-78
2023/08/16 13:31:28;;;;;;;5.38;1.92;;;;;;;;;;4938190;29;20066;-85
2023/08/16 13:34:46;;;;;;;6.05;2.85;;;;;;;;;;4937591;29;20048;-80
2023/08/16 13:42:58;;;;;;;4.63;2.20;;;;;;;;;;4941601;29;20052;-81
2023/08/16 13:46:11;;;;;;;8.77;3.88;;;;;;;;;;4940587;29;20059;-80
2023/08/16 13:48:42;;;;;;;5.97;2.10;;;;;;;;;;4958298;29;20382;-80
2023/08/16 13:51:12;;;;;;;3.28;1.80;;;;;;;;;;4958456;29;20055;-80
2023/08/16 13:53:43;;;;;;;7.18;2.30;;;;;;;;;;4957989;29;20043;-80
2023/08/16 13:56:14;;;;;;;7.53;1.77;;;;;;;;;;4940658;29;20051;-81
2023/08/16 13:59:11;;;;;;;3.30;1.48;;;;;;;;;;4914737;29;20502;-83
2023/08/16 14:01:43;;;;;;;6.05;1.40;;;;;;;;;;4939007;29;20406;-80
2023/08/16 14:04:42;;;;;;;4.40;2.22;;;;;;;;;;4922873;29;20058;-82
2023/08/16 14:07:36;;;;;;;4.22;1.80;;;;;;;;;;4922402;29;20066;-83
2023/08/16 14:10:33;;;;;;;6.10;2.25;;;;;;;;;;4907394;29;20051;-82
2023/08/16 14:13:48;;;;;;;3.30;1.67;;;;;;;;;;4907820;29;20055;-82
2023/08/16 14:17:15;;;;;;;5.38;1.52;;;;;;;;;;4900112;29;20060;-83
2023/08/16 14:20:10;;;;;;;3.53;1.98;;;;;;;;;;4883843;29;20123;-86
2023/08/16 14:23:14;;;;;;;3.28;1.73;;;;;;;;;;4868028;29;20053;-84
2023/08/16 14:25:51;;;;;;;7.60;2.17;;;;;;;;;;4881281;29;20044;-84
2023/08/16 14:28:25;;;;;;;5.72;1.55;;;;;;;;;;4897980;29;20068;-85
2023/08/16 14:30:55;;;;;;;3.88;1.23;;;;;;;;;;4897235;29;20416;-86
2023/08/16 14:33:31;;;;;;;3.13;1.40;;;;;;;;;;4915141;29;20071;-83
2023/08/16 14:36:01;;;;;;;6.55;1.92;;;;;;;;;;4899808;29;20067;-83
2023/08/16 14:38:31;;;;;;;2.92;1.90;;;;;;;;;;4899435;29;20056;-83
2023/08/16 14:41:10;;;;;;;6.13;1.80;;;;;;;;;;4885693;29;20056;-84
2023/08/16 14:43:41;;;;;;;2.58;1.40;;;;;;;;;;4905061;29;20079;-83
2023/08/16 14:46:13;;;;;;;3.88;1.75;;;;;;;;;;4898286;29;20048;-82
2023/08/16 14:48:46;;;;;;;4.50;2.17;;;;;;;;;;4915565;29;20118;-83
2023/08/16 14:51:41;;;;;;;6.18;1.67;;;;;;;;;;4915947;29;20523;-82
2023/08/16 14:55:31;;;;;;;4.97;1.75;;;;;;;;;;4898230;29;20052;-83
2023/08/16 15:01:48;;;;;;;5.68;1.75;;;;;;;;;;4896825;29;20574;-84
2023/08/16 15:04:27;;;;;;;4.43;1.65;;;;;;;;;;4896201;29;20048;-81
2023/08/16 15:07:00;;;;;;;3.60;1.70;;;;;;;;;;4896979;29;20447;-83
2023/08/16 15:09:32;;;;;;;4.43;2.13;;;;;;;;;;4896110;29;20553;-83
2023/08/16 15:12:02;;;;;;;5.20;2.13;;;;;;;;;;4895089;29;20508;-83
2023/08/16 15:14:33;;;;;;;8.80;2.15;;;;;;;;;;4897213;29;20181;-86
2023/08/16 15:17:06;;;;;;;8.13;2.00;;;;;;;;;;4878259;29;20068;-85
2023/08/16 15:19:40;;;;;;;3.13;1.83;;;;;;;;;;4886720;29;20061;-81
2023/08/16 15:26:42;;;;;;;4.65;1.40;;;;;;;;;;4899919;29;20045;-84
2023/08/16 15:29:31;;;;;;;3.70;1.60;;;;;;;;;;4862309;29;20072;-83
2023/08/16 15:32:03;;;;;;;5.28;1.88;;;;;;;;;;4866091;29;20542;-86
2023/08/16 15:34:33;;;;;;;4.03;1.63;;;;;;;;;;4913968;29;20056;-86
2023/08/16 15:37:05;;;;;;;4.45;1.80;;;;;;;;;;4913767;29;20048;-81
2023/08/16 15:39:40;;;;;;;3.72;1.63;;;;;;;;;;4914959;29;20100;-82